Time;durP1;ratioP1;P1;durP2;ratioP2;P2;SDS_P1;SDS_P2;PMS_P1;PMS_P2;Temp;Humidity;BMP_temperature;BMP_pressure;BME280_temperature;BME280_humidity;BME280_pressure;Samples;Min_cycle;Max_cycle;Signal;HPM_P1;HPM_P2
2023/07/03 00:00:16;;;;;;;8.80;6.10;;;;;;;16.14;68.70;98523.94;107730;1308;22214;-50
2023/07/03 00:02:42;;;;;;;10.50;5.80;;;;;;;16.09;69.36;98523.48;107736;1308;22312;-51
2023/07/03 00:05:09;;;;;;;18.80;6.30;;;;;;;16.07;69.25;98526.14;107724;1308;22233;-48
2023/07/03 00:07:38;;;;;;;;;;;;;;;16.03;69.72;98525.90;107726;1308;22466;-47
2023/07/03 00:10:04;;;;;;;12.60;6.00;;;;;;;15.99;70.10;98525.20;107713;1308;22327;-47
2023/07/03 00:12:30;;;;;;;9.90;5.20;;;;;;;15.97;70.12;98522.92;107741;1308;22331;-52
2023/07/03 00:14:56;;;;;;;8.50;5.50;;;;;;;15.94;70.05;98523.73;107720;1308;22276;-51
2023/07/03 00:17:22;;;;;;;9.00;5.60;;;;;;;15.91;69.95;98529.27;107739;1308;23144;-49
2023/07/03 00:19:48;;;;;;;9.60;5.80;;;;;;;15.85;70.81;98528.63;107717;1308;22250;-46
2023/07/03 00:22:13;;;;;;;13.60;6.00;;;;;;;15.84;70.50;98531.36;107718;1308;22308;-51
2023/07/03 00:24:38;;;;;;;8.60;5.80;;;;;;;15.83;70.00;98528.43;107683;1308;22878;-53
2023/07/03 00:27:04;;;;;;;9.40;6.40;;;;;;;15.81;70.59;98529.55;107709;1308;22295;-44
2023/07/03 00:29:31;;;;;;;11.30;6.60;;;;;;;15.78;70.94;98534.41;107723;1308;22500;-46
2023/07/03 00:31:57;;;;;;;10.90;5.80;;;;;;;15.74;71.24;98538.05;107727;1308;22271;-53
2023/07/03 00:34:23;;;;;;;13.00;6.50;;;;;;;15.73;70.86;98545.21;107733;1308;22655;-49
2023/07/03 00:36:48;;;;;;;9.00;5.50;;;;;;;15.67;71.13;98547.11;107733;1308;22271;-48
2023/07/03 00:39:14;;;;;;;14.10;5.40;;;;;;;15.65;70.91;98546.40;107715;1308;22421;-45
2023/07/03 00:41:41;;;;;;;11.40;5.80;;;;;;;15.65;70.87;98545.88;107707;1308;22312;-46
2023/07/03 00:44:10;;;;;;;12.60;6.20;;;;;;;15.65;71.01;98553.48;107698;1308;22547;-49
2023/07/03 00:46:35;;;;;;;12.20;5.70;;;;;;;15.59;71.19;98552.11;107724;1308;22385;-48
2023/07/03 00:49:03;;;;;;;13.50;6.30;;;;;;;15.58;70.67;98553.03;107741;1308;23296;-51
2023/07/03 00:51:28;;;;;;;15.50;6.10;;;;;;;15.59;70.58;98554.20;107711;1308;22259;-48
2023/07/03 00:53:54;;;;;;;9.10;5.90;;;;;;;15.56;70.68;98556.92;107715;1308;23303;-50
2023/07/03 00:56:19;;;;;;;13.70;6.20;;;;;;;15.53;70.78;98554.71;107697;1308;22467;-47
2023/07/03 00:58:44;;;;;;;10.80;6.10;;;;;;;15.53;70.30;98557.36;107713;1308;23136;-49
2023/07/03 01:01:21;;;;;;;12.50;6.20;;;;;;;15.48;70.95;98555.48;107696;1308;22838;-48
2023/07/03 01:03:53;;;;;;;10.90;6.40;;;;;;;15.48;70.64;98557.67;107716;1308;23104;-49
2023/07/03 01:06:23;;;;;;;11.50;6.00;;;;;;;15.46;70.92;98560.15;107724;1308;22440;-47
2023/07/03 01:08:56;;;;;;;12.40;6.30;;;;;;;15.43;70.80;98565.00;107725;1308;22458;-51
2023/07/03 01:11:22;;;;;;;17.20;6.60;;;;;;;15.37;71.16;98563.35;107725;1308;22880;-47
2023/07/03 01:13:51;;;;;;;13.80;5.70;;;;;;;15.34;71.29;98561.28;107741;1308;22337;-50
2023/07/03 01:16:18;;;;;;;13.30;6.20;;;;;;;15.31;71.41;98562.61;107718;1308;22445;-46
2023/07/03 01:18:45;;;;;;;14.10;6.30;;;;;;;15.29;71.08;98564.52;107716;1308;22448;-46
2023/07/03 01:21:21;;;;;;;15.10;6.40;;;;;;;15.26;71.32;98565.67;107710;1308;22084;-46
2023/07/03 01:23:57;;;;;;;9.30;5.80;;;;;;;15.26;70.87;98565.00;107720;1308;22301;-48
2023/07/03 01:26:25;;;;;;;11.70;6.20;;;;;;;15.22;71.23;98563.61;107730;1308;22417;-46
2023/07/03 01:28:55;;;;;;;12.50;6.00;;;;;;;15.17;71.58;98564.39;107712;1308;22274;-46
2023/07/03 01:31:25;;;;;;;13.50;6.10;;;;;;;15.13;71.40;98563.27;107717;1308;22352;-44
2023/07/03 01:33:51;;;;;;;13.00;6.40;;;;;;;15.09;71.39;98562.71;107705;1308;22408;-45
2023/07/03 01:36:17;;;;;;;12.90;6.40;;;;;;;15.04;71.85;98562.11;107701;1308;22410;-47
2023/07/03 01:38:44;;;;;;;15.10;6.50;;;;;;;15.02;71.84;98561.02;107723;1308;22253;-48
2023/07/03 01:41:12;;;;;;;10.70;6.20;;;;;;;14.99;72.03;98558.81;107744;1308;22236;-47
2023/07/03 01:43:40;;;;;;;9.60;6.40;;;;;;;14.98;72.26;98554.88;107691;1308;22288;-50
2023/07/03 01:46:07;;;;;;;13.50;6.80;;;;;;;14.97;72.15;98552.76;107705;1308;23431;-48
2023/07/03 01:48:33;;;;;;;;;;;;;;;14.98;72.23;98554.30;107716;1308;22484;-46
2023/07/03 01:50:58;;;;;;;11.80;6.20;;;;;;;14.96;72.04;98558.91;107659;1308;22239;-52
2023/07/03 01:54:02;;;;;;;16.90;6.40;;;;;;;14.93;71.91;98558.41;107716;1308;23077;-48
2023/07/03 01:56:34;;;;;;;14.10;6.90;;;;;;;14.92;71.97;98559.61;107109;1315;22538;-51
2023/07/03 01:59:08;;;;;;;12.20;6.70;;;;;;;14.91;72.14;98561.30;107113;1315;23433;-47
2023/07/03 02:01:52;;;;;;;14.00;6.60;;;;;;;14.89;71.73;98556.28;107136;1315;22261;-52
2023/07/03 02:04:29;;;;;;;11.40;6.50;;;;;;;14.88;72.01;98552.13;107140;1315;22433;-50
2023/07/03 02:06:56;;;;;;;14.00;6.50;;;;;;;14.90;72.16;98556.04;107128;1315;22265;-47
2023/07/03 02:09:22;;;;;;;13.60;6.90;;;;;;;14.93;71.61;98558.09;107137;1315;23127;-51
2023/07/03 02:11:48;;;;;;;12.60;6.30;;;;;;;14.90;71.68;98555.02;107100;1315;22310;-50
2023/07/03 02:14:14;;;;;;;10.80;6.50;;;;;;;14.90;71.86;98558.21;107130;1315;22149;-49
2023/07/03 02:16:41;;;;;;;14.90;7.10;;;;;;;14.89;72.32;98563.08;107118;1315;22971;-49
2023/07/03 02:19:07;;;;;;;;;;;;;;;14.89;72.34;98561.96;107132;1315;22588;-47
2023/07/03 02:21:35;;;;;;;15.30;6.50;;;;;;;14.86;72.27;98556.02;107123;1315;22291;-47
2023/07/03 02:24:00;;;;;;;13.60;7.10;;;;;;;14.86;72.43;98555.04;107113;1315;22402;-50
2023/07/03 02:26:25;;;;;;;11.40;6.60;;;;;;;14.87;72.41;98553.68;107148;1304;22417;-49
2023/07/03 02:28:51;;;;;;;13.30;7.10;;;;;;;14.88;72.61;98553.24;107128;1315;23060;-48
2023/07/03 02:31:16;;;;;;;13.80;7.10;;;;;;;14.87;72.74;98548.52;107165;1310;22457;-50
2023/07/03 02:33:41;;;;;;;15.30;7.20;;;;;;;14.85;73.04;98545.16;107677;1308;23802;-45
2023/07/03 02:36:07;;;;;;;11.30;6.60;;;;;;;14.84;73.34;98545.77;107690;1308;23055;-51
2023/07/03 02:38:32;;;;;;;12.70;6.40;;;;;;;14.85;73.01;98544.88;107705;1308;22320;-46
2023/07/03 02:43:51;;;;;;;15.40;6.20;;;;;;;14.86;72.66;98552.88;106883;1306;545873;-46
2023/07/03 02:46:16;;;;;;;13.10;6.70;;;;;;;14.86;71.97;98556.73;107195;1314;22238;-45
2023/07/03 02:48:42;;;;;;;16.80;7.10;;;;;;;14.89;72.04;98560.05;107208;1315;22325;-47
2023/07/03 02:51:07;;;;;;;14.80;6.90;;;;;;;14.90;71.87;98562.20;107202;1315;24227;-47
2023/07/03 02:53:33;;;;;;;15.70;7.20;;;;;;;14.92;72.14;98561.71;107284;1313;23221;-49
2023/07/03 02:55:58;;;;;;;11.10;6.60;;;;;;;14.94;72.23;98559.23;107267;1313;22273;-50
2023/07/03 02:58:24;;;;;;;16.00;6.60;;;;;;;14.95;71.69;98559.52;107351;1300;140621;-47
2023/07/03 03:00:50;;;;;;;12.30;7.00;;;;;;;14.96;71.89;98559.02;107474;1311;22257;-47
2023/07/03 03:03:16;;;;;;;14.10;6.50;;;;;;;14.99;71.97;98560.56;107487;1310;22470;-46
2023/07/03 03:05:41;;;;;;;16.40;6.80;;;;;;;15.03;71.64;98560.09;107483;1311;23200;-46
2023/07/03 03:08:07;;;;;;;13.00;6.90;;;;;;;15.05;72.09;98563.09;107479;1310;22453;-47
2023/07/03 03:10:33;;;;;;;13.20;6.90;;;;;;;15.08;72.13;98567.95;107507;1311;23268;-46
2023/07/03 03:12:58;;;;;;;16.10;6.80;;;;;;;15.13;72.00;98567.02;107476;1311;22499;-47
2023/07/03 03:15:26;;;;;;;9.60;6.20;;;;;;;15.14;71.95;98563.55;107470;1311;22279;-50
2023/07/03 03:17:51;;;;;;;12.00;6.80;;;;;;;15.15;72.27;98564.17;107479;1310;22518;-46
2023/07/03 03:20:17;;;;;;;14.20;6.40;;;;;;;15.18;72.28;98563.94;107477;1311;22760;-49
2023/07/03 03:22:42;;;;;;;13.90;6.80;;;;;;;15.21;72.43;98565.11;107500;1310;22267;-45
2023/07/03 03:25:08;;;;;;;14.90;7.40;;;;;;;15.22;72.60;98564.63;107481;1310;22250;-50
2023/07/03 03:27:33;;;;;;;13.40;6.80;;;;;;;15.26;72.40;98565.18;107493;1311;22316;-50
2023/07/03 03:29:59;;;;;;;16.60;6.90;;;;;;;15.28;72.43;98558.85;107513;1311;23405;-49
2023/07/03 03:32:24;;;;;;;11.40;6.50;;;;;;;15.31;72.21;98560.67;107484;1310;22484;-46
2023/07/03 03:34:50;;;;;;;12.10;6.30;;;;;;;15.31;72.57;98569.48;107852;1307;22267;-47
2023/07/03 03:37:16;;;;;;;12.80;6.60;;;;;;;15.34;72.09;98567.80;107828;1307;22730;-46
2023/07/03 03:39:42;;;;;;;14.10;6.50;;;;;;;15.35;72.28;98565.98;107849;1307;22408;-47
2023/07/03 03:42:09;;;;;;;13.10;7.20;;;;;;;15.35;72.60;98568.75;107832;1307;22222;-48
2023/07/03 03:44:35;;;;;;;10.30;6.40;;;;;;;15.40;72.66;98573.90;107832;1307;22230;-48
2023/07/03 03:47:00;;;;;;;15.10;6.80;;;;;;;15.43;72.30;98575.59;107836;1307;22336;-52
2023/07/03 03:49:25;;;;;;;16.80;6.90;;;;;;;15.46;72.25;98577.27;107848;1306;22256;-51
2023/07/03 03:51:51;;;;;;;14.10;7.00;;;;;;;15.45;71.91;98574.16;107819;1307;22483;-48
2023/07/03 03:54:16;;;;;;;14.70;7.70;;;;;;;15.43;71.74;98558.44;107843;1308;24437;-50
2023/07/03 03:56:41;;;;;;;13.30;7.10;;;;;;;15.43;71.73;98540.81;107833;1307;22261;-45
2023/07/03 03:59:06;;;;;;;15.10;7.50;;;;;;;15.41;71.83;98542.50;107848;1308;22244;-46
2023/07/03 04:01:34;;;;;;;15.30;6.30;;;;;;;15.43;71.59;98546.44;107804;1307;22490;-48
2023/07/03 04:03:59;;;;;;;;;;;;;;;15.42;71.49;98553.44;107877;1308;22496;-46
2023/07/03 04:06:25;;;;;;;14.50;7.40;;;;;;;15.40;71.31;98559.78;107813;1308;22360;-50
2023/07/03 04:08:51;;;;;;;14.10;7.00;;;;;;;15.40;71.34;98565.55;107815;1307;22225;-48
2023/07/03 04:11:16;;;;;;;13.70;6.80;;;;;;;15.41;71.39;98572.52;107787;1307;23160;-49
2023/07/03 04:13:41;;;;;;;12.00;6.40;;;;;;;15.41;71.65;98573.95;107812;1308;22258;-44
2023/07/03 04:16:07;;;;;;;16.00;6.70;;;;;;;15.33;72.21;98582.24;107809;1308;22484;-44
2023/07/03 04:18:32;;;;;;;17.40;7.50;;;;;;;15.28;72.53;98584.74;107827;1307;22443;-48
2023/07/03 04:20:59;;;;;;;14.40;7.30;;;;;;;15.23;72.55;98588.21;107811;1308;23227;-52
2023/07/03 04:23:25;;;;;;;14.80;6.60;;;;;;;15.25;72.49;98587.55;107827;1308;22325;-48
2023/07/03 04:25:51;;;;;;;12.20;6.60;;;;;;;15.24;72.96;98589.22;107820;1307;22344;-47
2023/07/03 04:28:21;;;;;;;17.90;7.00;;;;;;;15.25;72.99;98587.74;107810;1308;23125;-46
2023/07/03 04:30:47;;;;;;;17.30;7.70;;;;;;;15.26;73.27;98581.23;107807;1307;22481;-47
2023/07/03 04:33:13;;;;;;;14.70;7.30;;;;;;;15.28;72.94;98582.27;107848;1308;22605;-45
2023/07/03 04:35:39;;;;;;;9.80;6.30;;;;;;;15.31;72.33;98582.54;107834;1308;23186;-51
2023/07/03 04:38:04;;;;;;;15.10;7.70;;;;;;;15.33;71.70;98582.38;107837;1308;22328;-51
2023/07/03 04:40:30;;;;;;;11.30;6.50;;;;;;;15.33;71.57;98586.45;107789;1307;22451;-50
2023/07/03 04:42:56;;;;;;;11.70;6.50;;;;;;;15.37;71.48;98587.89;107820;1307;22408;-48
2023/07/03 04:45:21;;;;;;;15.20;6.80;;;;;;;15.41;71.03;98589.14;107833;1307;22541;-48
2023/07/03 04:47:49;;;;;;;11.20;6.70;;;;;;;15.46;70.47;98592.25;107824;1308;22250;-49
2023/07/03 04:50:15;;;;;;;10.80;6.90;;;;;;;15.47;70.67;98591.49;107806;1307;22931;-55
2023/07/03 04:52:41;;;;;;;12.00;5.90;;;;;;;15.49;70.27;98591.27;107829;1307;22245;-48
2023/07/03 04:55:08;;;;;;;14.50;6.40;;;;;;;15.54;70.09;98590.10;107823;1307;22311;-47
2023/07/03 04:57:38;;;;;;;11.40;6.40;;;;;;;15.61;69.94;98592.70;107848;1308;22306;-48
2023/07/03 05:00:16;;;;;;;15.80;6.60;;;;;;;15.67;69.97;98596.47;107821;1308;22314;-51
2023/07/03 05:02:43;;;;;;;20.70;7.30;;;;;;;15.71;69.63;98593.27;107819;1308;22249;-50
2023/07/03 05:05:10;;;;;;;11.60;6.30;;;;;;;15.77;69.10;98597.21;107840;1307;22045;-48
2023/07/03 05:07:36;;;;;;;15.70;6.80;;;;;;;15.82;68.89;98600.28;107806;1308;22136;-52
2023/07/03 05:10:01;;;;;;;11.70;6.40;;;;;;;15.86;68.37;98602.55;107824;1308;22593;-49
2023/07/03 05:12:27;;;;;;;15.10;6.50;;;;;;;15.92;68.14;98602.57;107819;1308;22261;-44
2023/07/03 05:14:52;;;;;;;13.70;7.40;;;;;;;15.96;67.70;98607.89;107842;1308;22982;-47
2023/07/03 05:17:17;;;;;;;13.30;7.00;;;;;;;16.02;67.25;98608.03;107846;1308;22577;-45
2023/07/03 05:19:42;;;;;;;14.50;5.80;;;;;;;16.08;66.57;98603.66;107834;1308;22799;-51
2023/07/03 05:22:08;;;;;;;12.70;6.10;;;;;;;16.14;66.52;98604.93;107838;1308;23072;-47
2023/07/03 05:24:34;;;;;;;11.40;5.70;;;;;;;16.20;66.18;98609.13;107837;1308;22864;-48
2023/07/03 05:26:59;;;;;;;9.20;5.80;;;;;;;16.25;66.13;98609.20;107848;1308;22373;-52
2023/07/03 05:29:24;;;;;;;19.00;6.20;;;;;;;16.34;66.18;98615.88;107810;1308;22889;-47
2023/07/03 05:31:50;;;;;;;14.10;6.00;;;;;;;16.39;65.54;98619.10;107852;1308;22254;-49
2023/07/03 05:34:15;;;;;;;11.30;5.10;;;;;;;16.45;64.97;98619.11;107815;1308;24323;-50
2023/07/03 05:36:41;;;;;;;11.80;5.90;;;;;;;16.52;64.79;98625.34;107836;1308;22694;-49
2023/07/03 05:39:07;;;;;;;16.80;6.40;;;;;;;16.57;63.85;98626.29;107845;1308;22474;-48
2023/07/03 05:41:32;;;;;;;11.00;6.00;;;;;;;16.63;63.83;98626.85;107631;1308;23204;-47
2023/07/03 05:43:57;;;;;;;14.10;6.40;;;;;;;16.69;63.14;98630.16;107811;1308;22402;-52
2023/07/03 05:46:23;;;;;;;13.30;6.60;;;;;;;16.77;62.82;98626.48;107831;1307;23176;-45
2023/07/03 05:48:50;;;;;;;8.60;5.20;;;;;;;16.84;62.80;98624.77;107841;1307;22951;-46
2023/07/03 05:51:15;;;;;;;16.40;5.10;;;;;;;16.91;61.42;98624.54;107832;1308;23198;-45
2023/07/03 05:53:41;;;;;;;10.10;5.50;;;;;;;17.01;62.16;98621.61;107848;1308;22401;-48
2023/07/03 05:56:06;;;;;;;16.90;5.70;;;;;;;17.12;61.34;98627.11;107836;1308;22415;-47
2023/07/03 05:58:32;;;;;;;13.20;5.30;;;;;;;17.24;59.77;98627.82;107785;1299;23386;-51
2023/07/03 06:00:58;;;;;;;15.10;5.30;;;;;;;17.36;59.00;98631.78;107812;1305;23073;-46
2023/07/03 06:03:24;;;;;;;9.40;5.40;;;;;;;17.50;58.83;98630.37;108013;1306;22374;-53
2023/07/03 06:05:51;;;;;;;16.70;5.10;;;;;;;17.63;58.18;98633.70;107882;1301;22244;-48
2023/07/03 06:08:16;;;;;;;15.40;5.00;;;;;;;17.75;58.48;98635.62;107972;1307;22246;-46
2023/07/03 06:10:41;;;;;;;11.70;5.30;;;;;;;17.85;56.63;98636.63;107827;1308;22455;-53
2023/07/03 06:13:07;;;;;;;11.00;4.80;;;;;;;17.95;56.87;98637.77;107836;1307;22181;-47
2023/07/03 06:15:34;;;;;;;10.10;5.20;;;;;;;18.09;57.40;98637.54;107798;1308;23805;-50
2023/07/03 06:18:01;;;;;;;;;;;;;;;18.21;56.73;98637.91;107867;1308;22509;-49
2023/07/03 06:20:27;;;;;;;9.30;4.80;;;;;;;18.36;56.41;98637.90;107832;1308;22250;-51
2023/07/03 06:22:52;;;;;;;13.20;5.20;;;;;;;18.48;55.40;98635.81;107145;1306;22609;-47
2023/07/03 06:25:17;;;;;;;11.50;5.70;;;;;;;18.56;55.71;98636.13;106943;1307;22274;-46
2023/07/03 06:27:42;;;;;;;10.00;4.90;;;;;;;18.59;55.37;98638.81;107964;1306;22259;-47
2023/07/03 06:30:08;;;;;;;14.60;5.10;;;;;;;18.63;53.44;98642.55;107842;1307;22528;-52
2023/07/03 06:32:33;;;;;;;9.10;4.90;;;;;;;18.71;54.32;98642.02;107989;1307;22220;-48
2023/07/03 06:34:59;;;;;;;11.00;4.70;;;;;;;18.82;53.49;98648.33;107870;1307;22277;-48
2023/07/03 06:37:24;;;;;;;17.40;5.20;;;;;;;18.91;52.92;98647.82;107889;1307;22482;-52
2023/07/03 06:39:49;;;;;;;11.00;4.30;;;;;;;19.03;51.80;98647.81;107953;1305;22337;-49
2023/07/03 06:42:15;;;;;;;9.20;4.90;;;;;;;19.16;52.86;98649.48;107842;1307;24292;-49
2023/07/03 06:44:40;;;;;;;9.80;5.00;;;;;;;19.24;50.00;98647.70;107963;1307;22261;-48
2023/07/03 06:47:06;;;;;;;10.20;4.70;;;;;;;19.34;50.82;98652.08;107908;1307;22249;-50
2023/07/03 06:49:32;;;;;;;10.10;4.90;;;;;;;19.42;49.46;98648.30;107883;1307;22342;-51
2023/07/03 06:51:58;;;;;;;13.40;4.60;;;;;;;19.48;48.57;98648.23;108010;1307;23356;-48
2023/07/03 06:54:23;;;;;;;10.40;4.20;;;;;;;19.58;49.20;98648.82;107824;1307;22529;-46
2023/07/03 06:56:48;;;;;;;10.90;4.10;;;;;;;19.65;48.94;98647.23;107931;1307;22262;-48
2023/07/03 06:59:14;;;;;;;10.00;4.20;;;;;;;19.69;48.13;98645.91;107888;1300;22448;-49
2023/07/03 07:01:40;;;;;;;11.90;4.40;;;;;;;19.74;48.84;98644.14;107867;1307;22307;-49
2023/07/03 07:04:05;;;;;;;9.40;4.20;;;;;;;19.77;47.16;98643.35;107981;1301;22921;-50
2023/07/03 07:06:31;;;;;;;8.60;4.60;;;;;;;19.86;48.25;98644.77;107839;1307;22433;-51
2023/07/03 07:08:58;;;;;;;11.10;4.60;;;;;;;19.89;47.14;98644.41;107939;1307;22613;-48
2023/07/03 07:11:29;;;;;;;9.70;5.50;;;;;;;19.91;47.10;98646.12;107926;1287;22501;-47
2023/07/03 07:13:57;;;;;;;10.10;4.70;;;;;;;19.89;45.92;98642.94;107856;1307;22441;-51
2023/07/03 07:16:25;;;;;;;9.70;4.70;;;;;;;19.95;46.95;98639.88;107997;1291;22984;-51
2023/07/03 07:18:53;;;;;;;19.00;5.80;;;;;;;20.07;46.85;98634.30;107883;1307;22977;-45
2023/07/03 07:21:18;;;;;;;11.50;4.60;;;;;;;20.25;47.58;98635.63;107897;1307;22431;-52
2023/07/03 07:23:54;;;;;;;10.40;4.90;;;;;;;20.38;45.05;98633.22;107960;1307;22467;-49
2023/07/03 07:26:22;;;;;;;8.60;4.40;;;;;;;20.51;44.99;98630.58;107738;1306;22490;-50
2023/07/03 07:28:48;;;;;;;9.70;4.70;;;;;;;20.57;44.08;98632.62;107971;1307;22300;-52
2023/07/03 07:31:21;;;;;;;12.30;4.70;;;;;;;20.59;43.36;98634.16;107930;1302;22293;-47
2023/07/03 07:33:47;;;;;;;8.70;4.30;;;;;;;20.57;43.12;98633.79;107428;1301;22644;-48
2023/07/03 07:36:14;;;;;;;11.30;4.40;;;;;;;20.60;43.25;98632.14;108009;1306;23285;-43
2023/07/03 07:38:40;;;;;;;8.80;4.20;;;;;;;20.68;44.42;98635.50;107749;1307;22590;-48
2023/07/03 07:41:05;;;;;;;12.20;4.60;;;;;;;20.75;42.99;98630.85;107919;1307;22250;-48
2023/07/03 07:43:31;;;;;;;11.10;4.20;;;;;;;20.85;43.33;98630.10;107939;1306;22277;-47
2023/07/03 07:45:56;;;;;;;15.50;5.40;;;;;;;20.97;42.57;98630.23;107924;1306;22264;-50
2023/07/03 07:48:22;;;;;;;8.30;4.30;;;;;;;21.14;43.39;98629.62;107801;1306;22545;-47
2023/07/03 07:50:47;;;;;;;10.40;4.80;;;;;;;21.20;42.34;98626.17;107914;1307;23634;-51
2023/07/03 07:53:13;;;;;;;11.60;5.00;;;;;;;21.10;41.17;98627.24;107910;1306;22474;-49
2023/07/03 07:55:38;;;;;;;9.70;4.80;;;;;;;21.12;42.40;98626.91;107861;1301;22316;-48
2023/07/03 07:58:04;;;;;;;11.40;4.70;;;;;;;21.20;42.69;98623.70;107961;1306;22493;-46
2023/07/03 08:00:29;;;;;;;9.90;5.00;;;;;;;21.25;42.34;98622.09;107867;1307;22239;-49
2023/07/03 08:02:54;;;;;;;14.80;4.70;;;;;;;21.33;43.08;98622.61;107932;1306;22283;-50
2023/07/03 08:05:20;;;;;;;11.30;5.00;;;;;;;21.32;42.41;98626.48;107803;1307;23099;-50
2023/07/03 08:07:46;;;;;;;12.70;5.20;;;;;;;21.37;43.14;98628.61;107844;1307;22284;-53
2023/07/03 08:10:12;;;;;;;16.80;5.10;;;;;;;21.54;42.45;98633.15;107262;1305;22429;-50
2023/07/03 08:12:37;;;;;;;11.40;5.00;;;;;;;21.71;41.92;98630.66;107867;1307;22438;-51
2023/07/03 08:15:04;;;;;;;12.80;5.50;;;;;;;21.85;42.55;98627.17;107928;1306;22488;-51
2023/07/03 08:17:30;;;;;;;8.90;5.10;;;;;;;21.85;41.69;98628.10;107944;1306;22209;-51
2023/07/03 08:19:56;;;;;;;15.80;4.90;;;;;;;21.96;41.73;98622.20;107625;1307;22281;-51
2023/07/03 08:22:22;;;;;;;10.40;4.90;;;;;;;22.04;41.87;98626.08;107969;1301;22790;-52
2023/07/03 08:24:47;;;;;;;11.40;5.30;;;;;;;22.03;41.22;98624.41;107846;1307;22242;-46
2023/07/03 08:27:12;;;;;;;11.90;4.80;;;;;;;22.17;42.39;98622.88;107932;1305;22249;-48
2023/07/03 08:29:38;;;;;;;10.70;5.20;;;;;;;22.24;41.82;98623.11;107951;1306;22293;-48
2023/07/03 08:32:06;;;;;;;10.10;5.10;;;;;;;22.35;42.37;98620.62;107823;1300;22482;-54
2023/07/03 08:34:31;;;;;;;10.90;5.40;;;;;;;22.41;41.56;98619.00;107981;1306;22263;-55
2023/07/03 08:36:56;;;;;;;14.30;6.50;;;;;;;22.35;41.08;98616.84;107910;1305;22281;-53
2023/07/03 08:39:22;;;;;;;9.70;5.20;;;;;;;22.38;41.49;98623.46;107894;1307;22512;-55
2023/07/03 08:41:54;;;;;;;10.70;5.50;;;;;;;22.46;41.42;98624.04;107986;1302;22250;-52
2023/07/03 08:44:20;;;;;;;9.70;5.10;;;;;;;22.66;41.07;98619.50;107832;1306;22282;-51
2023/07/03 08:46:47;;;;;;;15.40;5.40;;;;;;;22.99;41.23;98614.05;107962;1305;22319;-49
2023/07/03 08:49:16;;;;;;;14.70;5.70;;;;;;;23.07;40.30;98611.75;107921;1306;23219;-48
2023/07/03 08:51:42;;;;;;;13.90;5.50;;;;;;;23.08;40.04;98604.88;107830;1306;22283;-53
2023/07/03 08:54:14;;;;;;;8.00;4.80;;;;;;;23.18;40.24;98610.66;107961;1301;23160;-52
2023/07/03 08:56:40;;;;;;;9.20;5.20;;;;;;;23.29;40.48;98613.03;107828;1306;22518;-50
2023/07/03 08:59:06;;;;;;;8.30;5.10;;;;;;;23.46;40.70;98610.75;107900;1306;22462;-48
2023/07/03 09:01:41;;;;;;;12.90;5.90;;;;;;;23.53;40.03;98607.31;107925;1306;22402;-54
2023/07/03 09:04:44;;;;;;;14.50;5.90;;;;;;;23.60;40.00;98603.11;107825;1306;23279;-47
2023/07/03 09:07:38;;;;;;;18.90;6.00;;;;;;;23.70;39.16;98598.25;107911;1306;22360;-49
2023/07/03 09:10:16;;;;;;;17.80;5.60;;;;;;;23.91;38.93;98595.02;107976;1302;22293;-50
2023/07/03 09:13:05;;;;;;;8.30;5.40;;;;;;;24.15;38.35;98599.98;107787;1300;22589;-47
2023/07/03 09:15:37;;;;;;;12.10;5.50;;;;;;;24.25;36.66;98598.27;106934;1307;22403;-48
2023/07/03 09:18:12;;;;;;;9.30;5.30;;;;;;;24.40;37.09;98596.45;107953;1301;22323;-51
2023/07/03 09:20:38;;;;;;;11.70;5.80;;;;;;;24.41;35.98;98599.31;107870;1307;22364;-49
2023/07/03 09:23:13;;;;;;;12.00;5.20;;;;;;;24.33;35.36;98599.19;107947;1306;22203;-48
2023/07/03 09:25:41;;;;;;;18.00;5.50;;;;;;;24.58;36.58;98596.65;107965;1306;22254;-53
2023/07/03 09:28:09;;;;;;;10.40;5.40;;;;;;;24.79;34.75;98594.63;107671;1307;22477;-48
2023/07/03 09:30:35;;;;;;;12.70;5.60;;;;;;;25.05;34.45;98595.63;107993;1306;22458;-50
2023/07/03 09:33:00;;;;;;;11.60;5.40;;;;;;;25.43;33.87;98599.77;107886;1306;23051;-51
2023/07/03 09:35:36;;;;;;;12.00;6.30;;;;;;;25.78;33.79;98601.25;107886;1307;22500;-54
2023/07/03 09:38:05;;;;;;;14.70;6.10;;;;;;;26.22;33.45;98597.60;107992;1306;23328;-50
2023/07/03 09:40:37;;;;;;;14.80;5.50;;;;;;;26.56;33.91;98594.50;107887;1306;22236;-50
2023/07/03 09:43:03;;;;;;;9.50;5.60;;;;;;;26.73;33.01;98593.98;107297;1306;22599;-51
2023/07/03 09:45:34;;;;;;;11.20;5.80;;;;;;;27.14;32.76;98594.07;107948;1306;22380;-56
2023/07/03 09:48:04;;;;;;;9.90;6.00;;;;;;;27.48;30.47;98599.36;107876;1306;22273;-53
2023/07/03 09:50:37;;;;;;;11.90;5.50;;;;;;;28.01;30.60;98606.90;107983;1292;22292;-52
2023/07/03 09:53:04;;;;;;;11.70;6.00;;;;;;;28.35;29.63;98601.72;107917;1307;22498;-52
2023/07/03 09:55:30;;;;;;;14.30;6.00;;;;;;;28.60;28.26;98597.30;107901;1306;22310;-57
2023/07/03 09:57:56;;;;;;;12.80;5.40;;;;;;;29.01;28.10;98595.04;107974;1306;22441;-55
2023/07/03 10:00:24;;;;;;;9.40;5.50;;;;;;;29.30;27.85;98596.83;107866;1307;22915;-52
2023/07/03 10:02:55;;;;;;;10.50;5.70;;;;;;;29.29;28.26;98591.08;107952;1306;22279;-54
2023/07/03 10:05:29;;;;;;;15.20;5.70;;;;;;;29.29;28.47;98590.67;107927;1307;22307;-53
2023/07/03 10:08:00;;;;;;;11.10;6.10;;;;;;;28.90;28.31;98584.25;107503;1300;22584;-50
2023/07/03 10:10:28;;;;;;;11.80;6.10;;;;;;;28.58;27.95;98588.89;107642;1307;22321;-50
2023/07/03 10:13:12;;;;;;;11.40;5.90;;;;;;;28.47;27.09;98589.58;107970;1307;23156;-49
2023/07/03 10:15:40;;;;;;;12.00;6.20;;;;;;;28.48;26.36;98593.89;107946;1304;22540;-50
2023/07/03 10:18:20;;;;;;;12.80;6.00;;;;;;;28.34;27.51;98592.39;107862;1307;22421;-51
2023/07/03 10:20:48;;;;;;;13.20;6.10;;;;;;;28.17;28.52;98589.63;107952;1306;22314;-56
2023/07/03 10:23:35;;;;;;;11.00;5.90;;;;;;;28.34;28.46;98587.41;107906;1306;23235;-49
2023/07/03 10:26:06;;;;;;;13.50;6.30;;;;;;;28.94;27.55;98587.55;107845;1307;22260;-52
2023/07/03 10:28:37;;;;;;;12.00;6.10;;;;;;;29.08;27.07;98589.52;107958;1307;22252;-52
2023/07/03 10:31:08;;;;;;;12.40;5.50;;;;;;;29.12;26.79;98579.38;107906;1307;22194;-52
2023/07/03 10:33:44;;;;;;;8.40;5.60;;;;;;;29.21;27.08;98576.09;107562;1285;23027;-45
2023/07/03 10:36:16;;;;;;;10.70;5.50;;;;;;;29.52;27.35;98576.45;108003;1307;22491;-50
2023/07/03 10:39:18;;;;;;;9.20;5.70;;;;;;;30.15;26.96;98571.96;107875;1307;22470;-52
2023/07/03 10:41:47;;;;;;;9.10;5.20;;;;;;;30.10;27.14;98572.27;106676;1307;22572;-50
2023/07/03 10:44:20;;;;;;;12.20;5.50;;;;;;;29.70;27.24;98574.81;107087;1307;22469;-52
2023/07/03 10:47:14;;;;;;;8.30;5.50;;;;;;;29.60;27.69;98571.85;107812;1307;22269;-50
2023/07/03 10:49:40;;;;;;;12.20;5.60;;;;;;;29.75;27.33;98566.23;107810;1306;22407;-50
2023/07/03 10:52:46;;;;;;;17.60;6.10;;;;;;;30.29;26.41;98559.90;107990;1301;22460;-52
2023/07/03 10:55:31;;;;;;;9.40;5.50;;;;;;;30.77;25.75;98557.11;107791;1307;22474;-49
2023/07/03 10:58:10;;;;;;;9.00;5.60;;;;;;;30.90;25.50;98561.19;107860;1307;22440;-50
2023/07/03 11:00:57;;;;;;;11.90;5.40;;;;;;;30.55;25.21;98567.05;107808;1305;22276;-48
2023/07/03 11:03:59;;;;;;;17.10;5.20;;;;;;;29.70;25.56;98565.13;107882;1307;22452;-50
2023/07/03 11:06:33;;;;;;;7.30;5.30;;;;;;;29.33;26.84;98556.81;107778;1307;22351;-51
2023/07/03 11:09:27;;;;;;;9.20;5.40;;;;;;;29.11;27.36;98556.23;107930;1294;22254;-47
2023/07/03 11:12:12;;;;;;;9.10;5.50;;;;;;;29.35;26.95;98555.41;107917;1307;23077;-51
2023/07/03 11:15:30;;;;;;;12.30;5.60;;;;;;;30.10;26.05;98552.35;107829;1306;22345;-48
2023/07/03 11:18:40;;;;;;;10.50;5.40;;;;;;;30.88;24.26;98558.40;106708;1307;24385;-47
2023/07/03 11:21:05;;;;;;;11.50;6.20;;;;;;;31.50;23.63;98561.36;107158;1314;22412;-52
2023/07/03 11:24:01;;;;;;;8.80;5.30;;;;;;;31.77;24.54;98559.27;107223;1313;22731;-52
2023/07/03 11:26:37;;;;;;;9.90;6.20;;;;;;;31.94;23.73;98559.09;107227;1314;22903;-54
2023/07/03 11:29:06;;;;;;;10.30;5.50;;;;;;;32.17;23.56;98562.38;107197;1313;22091;-51